Time;durP1;ratioP1;P1;durP2;ratioP2;P2;SDS_P1;SDS_P2;PMS_P1;PMS_P2;Temp;Humidity;BMP_temperature;BMP_pressure;BME280_temperature;BME280_humidity;BME280_pressure;Samples;Min_cycle;Max_cycle;Signal;HPM_P1;HPM_P2
2021/08/13 00:01:39;;;;;;;19.95;8.75;;;;;;;20.58;89.08;97167.22;5040009;28;20044;-65
2021/08/13 00:04:05;;;;;;;13.38;8.05;;;;;;;20.63;88.84;97166.75;5034055;28;20041;-64
2021/08/13 00:06:31;;;;;;;16.42;8.52;;;;;;;20.30;90.42;97165.66;5040008;28;20551;-65
2021/08/13 00:08:56;;;;;;;20.23;8.48;;;;;;;20.09;91.16;97177.88;5040305;28;20040;-66
2021/08/13 00:11:22;;;;;;;14.18;9.02;;;;;;;19.90;91.87;97182.91;5033727;28;20142;-65
2021/08/13 00:13:47;;;;;;;14.60;7.75;;;;;;;19.71;93.85;97172.38;5021619;28;20037;-66
2021/08/13 00:16:13;;;;;;;13.73;7.35;;;;;;;19.60;94.56;97175.28;5034188;28;20103;-66
2021/08/13 00:18:38;;;;;;;14.90;7.50;;;;;;;19.23;96.94;97179.66;5039604;28;20045;-66
2021/08/13 00:21:03;;;;;;;16.60;8.40;;;;;;;18.91;99.69;97167.66;5031871;28;20040;-63
2021/08/13 00:23:29;;;;;;;13.77;8.88;;;;;;;18.76;100.00;97168.19;5039190;28;20055;-65
2021/08/13 00:25:54;;;;;;;12.57;8.73;;;;;;;18.69;100.00;97177.34;5039709;28;20501;-65
2021/08/13 00:28:20;;;;;;;13.82;8.98;;;;;;;18.59;100.00;97183.78;5033327;28;20111;-65
2021/08/13 00:30:45;;;;;;;15.68;9.30;;;;;;;18.62;100.00;97180.16;5039312;28;20398;-66
2021/08/13 00:33:10;;;;;;;13.35;8.48;;;;;;;18.63;100.00;97174.22;5033929;28;20067;-65
2021/08/13 00:35:36;;;;;;;15.00;8.35;;;;;;;18.71;100.00;97172.97;5031530;28;20469;-66
2021/08/13 00:38:02;;;;;;;14.45;7.95;;;;;;;18.88;100.00;97176.03;5029611;28;20046;-65
2021/08/13 00:40:27;;;;;;;11.65;7.68;;;;;;;19.04;100.00;97175.50;5030920;28;20045;-66
2021/08/13 00:42:52;;;;;;;14.90;7.95;;;;;;;19.45;99.38;97178.22;5039751;28;20040;-66
2021/08/13 00:45:18;;;;;;;15.95;8.05;;;;;;;19.61;97.18;97169.31;5022238;28;20049;-65
2021/08/13 00:47:44;;;;;;;11.63;7.07;;;;;;;19.73;96.31;97170.78;5037095;28;20405;-65
2021/08/13 00:50:10;;;;;;;22.35;8.27;;;;;;;19.63;95.47;97169.69;5034002;28;20068;-65
2021/08/13 00:52:37;;;;;;;13.02;8.07;;;;;;;19.57;96.25;97162.22;5033291;28;20390;-66
2021/08/13 00:55:04;;;;;;;16.85;8.80;;;;;;;19.51;95.76;97156.34;5041018;28;20192;-64
2021/08/13 00:57:30;;;;;;;16.35;7.72;;;;;;;19.32;97.58;97166.09;5037979;28;20489;-66
2021/08/13 00:59:55;;;;;;;15.73;7.93;;;;;;;19.01;99.70;97165.22;5043601;28;20041;-67
2021/08/13 01:02:21;;;;;;;15.68;7.85;;;;;;;18.44;100.00;97169.22;5037025;28;20081;-66
2021/08/13 01:04:46;;;;;;;13.60;8.63;;;;;;;18.25;100.00;97176.09;5040087;28;20566;-65
2021/08/13 01:07:12;;;;;;;14.23;9.13;;;;;;;18.32;100.00;97178.81;5036941;28;20036;-65
2021/08/13 01:09:39;;;;;;;14.85;8.55;;;;;;;18.44;100.00;97180.31;5042899;28;20394;-67
2021/08/13 01:12:35;;;;;;;20.20;9.55;;;;;;;18.60;100.00;97179.78;5028984;28;20065;-62
2021/08/13 01:15:03;;;;;;;18.92;9.30;;;;;;;18.78;100.00;97169.34;5038243;28;20578;-67
2021/08/13 01:17:45;;;;;;;13.75;8.88;;;;;;;18.94;100.00;97171.59;5029885;28;20449;-66
2021/08/13 01:20:16;;;;;;;15.40;8.45;;;;;;;18.99;100.00;97165.59;5047091;28;20072;-65
2021/08/13 01:22:56;;;;;;;14.45;8.73;;;;;;;19.08;100.00;97163.13;5057385;28;20075;-66
2021/08/13 01:25:30;;;;;;;15.30;8.45;;;;;;;19.07;100.00;97167.13;5039860;28;20658;-67
2021/08/13 01:27:56;;;;;;;15.15;8.38;;;;;;;19.05;100.00;97177.88;5043277;28;20544;-67
2021/08/13 01:30:25;;;;;;;14.05;8.57;;;;;;;18.93;100.00;97180.38;5035627;28;20044;-66
2021/08/13 01:33:08;;;;;;;13.43;8.52;;;;;;;18.84;100.00;97184.38;5042069;28;20037;-67
2021/08/13 01:35:44;;;;;;;12.60;8.40;;;;;;;18.86;100.00;97176.44;5039110;28;20155;-63
2021/08/13 01:38:18;;;;;;;11.27;8.27;;;;;;;18.90;100.00;97185.50;5034921;28;20037;-64
2021/08/13 01:40:47;;;;;;;11.43;7.78;;;;;;;18.90;100.00;97173.63;5036034;28;20060;-66
2021/08/13 01:43:16;;;;;;;13.70;7.60;;;;;;;18.98;100.00;97185.44;5025409;28;20052;-67
2021/08/13 01:45:42;;;;;;;19.80;8.30;;;;;;;19.03;100.00;97191.38;5038187;28;20123;-66
2021/08/13 01:48:08;;;;;;;12.88;8.00;;;;;;;19.06;99.88;97193.31;5026411;28;20063;-64
2021/08/13 01:50:34;;;;;;;14.32;7.43;;;;;;;19.10;99.80;97190.50;5036904;28;20068;-64
2021/08/13 01:53:02;;;;;;;17.70;8.30;;;;;;;19.14;99.74;97188.50;5041305;28;20127;-67
2021/08/13 01:55:29;;;;;;;15.48;8.15;;;;;;;19.15;99.73;97192.81;5036569;28;20056;-66
2021/08/13 01:57:55;;;;;;;11.63;7.72;;;;;;;19.13;99.92;97192.47;5040196;28;20045;-66
2021/08/13 02:00:21;;;;;;;12.23;7.30;;;;;;;19.09;99.55;97189.72;5033016;28;20050;-65
2021/08/13 02:02:48;;;;;;;17.90;7.78;;;;;;;19.05;99.10;97191.75;5040971;28;20079;-66
2021/08/13 02:05:19;;;;;;;15.50;7.50;;;;;;;18.78;100.00;97177.69;5036174;28;20060;-66
2021/08/13 02:07:47;;;;;;;14.52;8.57;;;;;;;18.48;100.00;97184.63;5040081;28;20040;-65
2021/08/13 02:10:13;;;;;;;18.13;8.23;;;;;;;18.45;100.00;97185.44;5035790;28;20118;-65
2021/08/13 02:12:38;;;;;;;11.60;8.15;;;;;;;18.50;100.00;97196.13;5039520;28;20075;-66
2021/08/13 02:15:06;;;;;;;14.25;8.57;;;;;;;18.53;100.00;97200.06;5026933;28;20048;-64
2021/08/13 02:17:35;;;;;;;12.30;7.93;;;;;;;18.59;100.00;97206.75;5028080;28;20520;-66
2021/08/13 02:20:06;;;;;;;12.80;9.20;;;;;;;18.60;100.00;97200.03;5028435;28;20057;-65
2021/08/13 02:22:32;;;;;;;14.88;8.73;;;;;;;18.62;100.00;97205.94;5039926;28;20371;-66
2021/08/13 02:24:57;;;;;;;12.88;7.10;;;;;;;18.64;100.00;97208.31;5039911;28;20048;-64
2021/08/13 02:27:26;;;;;;;16.20;8.55;;;;;;;18.71;100.00;97216.59;5018792;28;20996;-65
2021/08/13 02:29:52;;;;;;;11.85;7.72;;;;;;;18.72;100.00;97204.28;5041236;28;20501;-66
2021/08/13 02:32:18;;;;;;;12.75;7.53;;;;;;;18.75;100.00;97202.69;5034306;28;20041;-66
2021/08/13 02:34:44;;;;;;;11.13;7.85;;;;;;;18.69;100.00;97211.44;5038077;28;20517;-66
2021/08/13 02:37:23;;;;;;;13.77;7.72;;;;;;;18.57;100.00;97211.94;5025756;28;20128;-66
2021/08/13 02:39:54;;;;;;;13.20;9.00;;;;;;;18.59;100.00;97208.75;5040278;28;20044;-66
2021/08/13 02:42:26;;;;;;;12.32;7.25;;;;;;;18.55;100.00;97208.78;5035108;28;20041;-65
2021/08/13 02:44:56;;;;;;;12.02;7.65;;;;;;;18.56;100.00;97199.25;5038748;28;20048;-64
2021/08/13 02:47:24;;;;;;;11.15;7.18;;;;;;;18.57;100.00;97206.38;5033583;28;20053;-65
2021/08/13 02:49:55;;;;;;;12.25;7.22;;;;;;;18.60;100.00;97201.97;5031477;28;20048;-65
2021/08/13 02:52:28;;;;;;;12.70;7.30;;;;;;;18.61;100.00;97196.03;5031730;28;20033;-66
2021/08/13 02:55:00;;;;;;;15.25;7.50;;;;;;;18.73;100.00;97181.69;5034571;28;20054;-65
2021/08/13 02:57:33;;;;;;;14.50;7.55;;;;;;;18.80;100.00;97180.03;5033633;28;20041;-66
2021/08/13 03:00:02;;;;;;;12.10;7.97;;;;;;;18.90;100.00;97182.72;5039839;28;20037;-65
2021/08/13 03:02:30;;;;;;;12.45;7.78;;;;;;;18.91;100.00;97183.53;5036078;28;20131;-65
2021/08/13 03:04:57;;;;;;;13.07;7.30;;;;;;;18.81;100.00;97182.44;5034606;28;20037;-65
2021/08/13 03:07:24;;;;;;;13.10;7.88;;;;;;;18.81;100.00;97187.97;5035446;28;20091;-64
2021/08/13 03:09:51;;;;;;;15.85;8.00;;;;;;;18.85;100.00;97187.94;5037141;28;20449;-65
2021/08/13 03:12:17;;;;;;;10.98;7.57;;;;;;;18.95;100.00;97184.28;5029008;28;20082;-65
2021/08/13 03:14:42;;;;;;;12.15;7.55;;;;;;;18.92;100.00;97190.66;5039425;28;20436;-66
2021/08/13 03:17:09;;;;;;;13.95;8.10;;;;;;;18.98;100.00;97194.59;5034213;28;20808;-66
2021/08/13 03:19:35;;;;;;;14.00;7.40;;;;;;;18.97;100.00;97200.53;5036274;28;20391;-67
2021/08/13 03:22:01;;;;;;;20.88;8.63;;;;;;;18.90;99.98;97193.84;5037838;28;20052;-65
2021/08/13 03:24:27;;;;;;;11.68;8.50;;;;;;;18.86;100.00;97195.88;5034134;28;20037;-65
2021/08/13 03:26:53;;;;;;;15.95;8.57;;;;;;;18.84;100.00;97195.50;5040185;28;20075;-67
2021/08/13 03:29:19;;;;;;;20.17;8.85;;;;;;;18.76;99.70;97199.47;5031072;28;20041;-66
2021/08/13 03:31:46;;;;;;;14.60;8.15;;;;;;;18.49;100.00;97207.59;5039102;28;20602;-67
2021/08/13 03:34:13;;;;;;;15.00;8.15;;;;;;;18.37;100.00;97213.66;5030242;28;20049;-65
2021/08/13 03:36:39;;;;;;;12.77;7.20;;;;;;;18.21;100.00;97209.38;5039886;28;20041;-64
2021/08/13 03:39:05;;;;;;;15.45;8.50;;;;;;;18.12;100.00;97214.59;5034919;28;20135;-64
2021/08/13 03:41:31;;;;;;;13.15;8.80;;;;;;;18.15;100.00;97208.25;5039220;28;20049;-65
2021/08/13 03:43:57;;;;;;;13.10;7.80;;;;;;;18.15;100.00;97208.25;5033867;28;20060;-66
2021/08/13 03:46:22;;;;;;;17.98;8.25;;;;;;;18.24;100.00;97216.91;5024478;28;21039;-66
2021/08/13 03:48:48;;;;;;;11.93;7.85;;;;;;;18.29;100.00;97212.88;5038162;28;20052;-66
2021/08/13 03:51:13;;;;;;;13.73;7.85;;;;;;;18.38;100.00;97209.66;5025547;28;20056;-65
2021/08/13 03:53:39;;;;;;;16.77;8.32;;;;;;;18.45;100.00;97209.63;5033531;28;20045;-66
2021/08/13 03:56:05;;;;;;;12.60;7.60;;;;;;;18.49;100.00;97213.97;5029149;28;20044;-64
2021/08/13 03:58:30;;;;;;;15.05;8.38;;;;;;;18.53;100.00;97214.72;5042791;28;20032;-65
2021/08/13 04:00:56;;;;;;;11.25;8.00;;;;;;;18.57;100.00;97202.81;5051231;28;20079;-64
2021/08/13 04:03:21;;;;;;;17.05;8.43;;;;;;;18.60;100.00;97208.34;5050126;28;20059;-63
2021/08/13 04:05:47;;;;;;;10.35;7.70;;;;;;;18.53;100.00;97213.94;5042171;28;20124;-64
2021/08/13 04:08:12;;;;;;;16.95;8.30;;;;;;;18.47;100.00;97221.09;5032813;28;20390;-66
2021/08/13 04:10:38;;;;;;;12.50;7.55;;;;;;;18.45;100.00;97220.72;5038757;28;20072;-66
2021/08/13 04:13:03;;;;;;;10.98;7.53;;;;;;;18.47;100.00;97215.56;5026018;28;20498;-65
2021/08/13 04:15:29;;;;;;;10.07;6.93;;;;;;;18.49;100.00;97211.19;5029302;28;20521;-66
2021/08/13 04:17:55;;;;;;;10.05;6.88;;;;;;;18.53;100.00;97211.16;5034821;28;20128;-65
2021/08/13 04:20:21;;;;;;;14.30;8.13;;;;;;;18.57;100.00;97216.69;5028750;28;20055;-66
2021/08/13 04:22:46;;;;;;;13.75;7.57;;;;;;;18.63;100.00;97220.59;5029532;28;20045;-66
2021/08/13 04:25:12;;;;;;;13.07;8.25;;;;;;;18.61;100.00;97218.22;5035931;28;20056;-66
2021/08/13 04:27:37;;;;;;;16.30;8.70;;;;;;;18.65;100.00;97215.44;5039141;28;20060;-67
2021/08/13 04:30:03;;;;;;;15.38;7.85;;;;;;;18.60;100.00;97219.44;5045928;28;20128;-64
2021/08/13 04:32:29;;;;;;;16.20;8.35;;;;;;;18.45;100.00;97217.94;5031788;28;20100;-66
2021/08/13 04:34:55;;;;;;;19.85;7.47;;;;;;;18.37;100.00;97224.75;5042680;28;20135;-66
2021/08/13 04:37:20;;;;;;;16.58;8.32;;;;;;;18.42;100.00;97230.66;5037279;28;20091;-65
2021/08/13 04:39:46;;;;;;;14.82;8.60;;;;;;;18.38;100.00;97234.63;5041089;28;20036;-65
2021/08/13 04:42:11;;;;;;;16.90;8.60;;;;;;;18.53;100.00;97238.91;5032267;28;20844;-66
2021/08/13 04:44:37;;;;;;;15.43;8.75;;;;;;;18.69;100.00;97238.38;5033233;28;20454;-65
2021/08/13 04:47:04;;;;;;;12.85;8.00;;;;;;;18.67;100.00;97236.03;5037438;28;20055;-64
2021/08/13 04:49:30;;;;;;;12.60;7.15;;;;;;;18.67;100.00;97243.53;5023323;28;20066;-66
2021/08/13 04:51:55;;;;;;;10.48;7.40;;;;;;;18.71;100.00;97247.09;5042360;28;20033;-66
2021/08/13 04:54:20;;;;;;;11.68;7.72;;;;;;;18.81;100.00;97251.78;5027629;28;20049;-66
2021/08/13 04:56:46;;;;;;;14.43;7.13;;;;;;;18.93;100.00;97247.75;5040838;28;20045;-67
2021/08/13 04:59:11;;;;;;;11.32;6.53;;;;;;;19.07;99.69;97244.09;5032930;28;20052;-66
2021/08/13 05:01:37;;;;;;;13.60;6.65;;;;;;;19.20;98.91;97245.13;5039464;28;20056;-65
2021/08/13 05:04:03;;;;;;;8.98;6.60;;;;;;;19.45;98.15;97249.69;5036254;28;20046;-64
2021/08/13 05:06:29;;;;;;;12.73;6.38;;;;;;;19.50;96.10;97249.22;5040627;28;20049;-66
2021/08/13 05:08:54;;;;;;;10.80;6.55;;;;;;;19.55;95.47;97254.31;5039719;28;20099;-66
2021/08/13 05:11:20;;;;;;;11.95;7.13;;;;;;;19.58;95.77;97259.06;5027476;28;20045;-65
2021/08/13 05:13:45;;;;;;;9.55;6.90;;;;;;;19.58;96.05;97264.59;5033250;28;20076;-65
2021/08/13 05:16:11;;;;;;;13.68;6.85;;;;;;;19.92;95.14;97265.88;5035878;28;20440;-67
2021/08/13 05:18:36;;;;;;;14.15;7.55;;;;;;;20.47;91.86;97261.97;5022619;28;20503;-66
2021/08/13 05:21:02;;;;;;;13.05;7.25;;;;;;;21.57;86.83;97255.09;5042226;28;20632;-65
2021/08/13 05:23:28;;;;;;;16.00;7.40;;;;;;;22.13;82.58;97254.41;5034770;28;20097;-65
2021/08/13 05:25:57;;;;;;;12.18;5.60;;;;;;;23.24;75.77;97251.13;5034409;28;20049;-66
2021/08/13 05:28:23;;;;;;;10.93;6.65;;;;;;;23.16;75.25;97255.34;5031914;28;20056;-66
2021/08/13 05:30:48;;;;;;;16.40;6.43;;;;;;;22.84;76.10;97257.66;5044792;28;20032;-64
2021/08/13 05:33:13;;;;;;;11.70;6.00;;;;;;;21.79;81.17;97266.66;5035747;28;20040;-65
2021/08/13 05:35:39;;;;;;;16.98;7.05;;;;;;;21.57;83.49;97264.25;5040631;28;20671;-65
2021/08/13 05:38:05;;;;;;;13.98;6.70;;;;;;;21.33;85.02;97259.88;5035947;28;20518;-62
2021/08/13 05:40:30;;;;;;;11.43;6.13;;;;;;;21.37;85.42;97269.75;5026572;28;20102;-64
2021/08/13 05:42:56;;;;;;;12.60;6.85;;;;;;;21.54;85.25;97278.25;5035739;28;20047;-65
2021/08/13 05:45:23;;;;;;;14.25;6.30;;;;;;;22.14;82.65;97279.06;5035354;28;20056;-66
2021/08/13 05:47:48;;;;;;;9.75;5.80;;;;;;;22.40;80.76;97284.16;5040878;28;20136;-69
2021/08/13 05:50:16;;;;;;;12.23;5.50;;;;;;;23.03;78.83;97283.94;5025942;28;20582;-66
2021/08/13 05:52:42;;;;;;;14.45;6.57;;;;;;;23.85;74.52;97289.47;5046357;28;20040;-68
2021/08/13 05:55:09;;;;;;;13.45;6.43;;;;;;;25.04;67.47;97285.25;5024573;28;20429;-66
2021/08/13 05:57:34;;;;;;;8.27;4.97;;;;;;;26.62;60.84;97285.41;5037898;28;20041;-66
2021/08/13 06:00:00;;;;;;;10.15;5.28;;;;;;;26.67;59.58;97287.63;5034561;28;20433;-68
2021/08/13 06:02:25;;;;;;;10.00;5.55;;;;;;;24.83;69.36;97289.50;5034396;28;20044;-67
2021/08/13 06:04:51;;;;;;;9.43;5.70;;;;;;;23.45;75.85;97286.91;5039015;28;20041;-66
2021/08/13 06:07:16;;;;;;;9.93;5.57;;;;;;;23.06;78.92;97302.63;5026678;28;20056;-68
2021/08/13 06:09:41;;;;;;;13.57;5.70;;;;;;;23.12;78.62;97296.53;5041944;28;20045;-68
2021/08/13 06:12:07;;;;;;;12.15;5.35;;;;;;;24.17;74.75;97282.22;5042154;28;20037;-68
2021/08/13 06:14:33;;;;;;;11.93;5.50;;;;;;;25.43;67.86;97281.19;5033472;28;20429;-68
2021/08/13 06:17:00;;;;;;;10.73;5.93;;;;;;;26.03;65.40;97285.16;5011214;28;20057;-67
2021/08/13 06:19:26;;;;;;;10.60;5.22;;;;;;;27.25;60.35;97288.94;5042665;28;20084;-66
2021/08/13 06:21:53;;;;;;;10.10;4.72;;;;;;;28.18;57.81;97295.44;5033506;28;20064;-66
2021/08/13 06:24:22;;;;;;;11.98;5.00;;;;;;;28.74;57.29;97299.75;5031362;28;20081;-71
2021/08/13 06:26:48;;;;;;;5.95;4.03;;;;;;;28.83;54.64;97289.69;5037171;28;20116;-67
2021/08/13 06:29:13;;;;;;;11.82;4.22;;;;;;;29.89;51.21;97288.53;5035316;28;20244;-67
2021/08/13 06:31:39;;;;;;;9.75;4.40;;;;;;;31.03;47.25;97280.03;5039267;28;20048;-67
2021/08/13 06:34:05;;;;;;;10.30;4.60;;;;;;;31.54;47.19;97283.59;5034601;28;20152;-66
2021/08/13 06:36:30;;;;;;;11.35;4.38;;;;;;;32.39;45.27;97288.97;4988414;28;20042;-65
2021/08/13 06:38:56;;;;;;;10.50;4.40;;;;;;;32.67;43.50;97291.31;5034736;28;20398;-66
2021/08/13 06:41:21;;;;;;;7.50;4.57;;;;;;;32.82;43.62;97291.19;5034112;28;22027;-67
2021/08/13 06:43:46;;;;;;;9.70;4.50;;;;;;;31.96;44.91;97291.59;5016098;28;20036;-67
2021/08/13 06:46:12;;;;;;;12.95;4.35;;;;;;;33.34;43.12;97291.06;5019887;28;20044;-67
2021/08/13 06:48:37;;;;;;;9.45;4.72;;;;;;;33.33;42.20;97295.19;5025787;28;20061;-66
2021/08/13 06:51:03;;;;;;;14.70;4.68;;;;;;;32.95;43.03;97293.59;5044720;28;20051;-67
2021/08/13 06:53:28;;;;;;;9.00;5.03;;;;;;;31.45;46.77;97295.78;5036798;28;20044;-66
2021/08/13 06:55:54;;;;;;;8.38;4.63;;;;;;;31.49;46.26;97301.28;5033284;28;20103;-66
2021/08/13 06:58:19;;;;;;;9.63;2.70;;;;;;;31.76;43.59;97300.84;5033491;28;20066;-66
2021/08/13 07:00:45;;;;;;;10.77;3.92;;;;;;;30.79;46.84;97297.09;5042065;28;20040;-65
2021/08/13 07:03:10;;;;;;;14.35;3.47;;;;;;;31.89;45.36;97308.22;5036724;28;20453;-66
2021/08/13 07:05:36;;;;;;;8.85;3.20;;;;;;;33.24;42.54;97292.56;5033975;28;20070;-67
2021/08/13 07:08:11;;;;;;;10.52;3.35;;;;;;;33.42;41.42;97287.72;5038410;28;20119;-67
2021/08/13 07:10:37;;;;;;;6.00;3.00;;;;;;;33.32;41.08;97287.94;5021340;28;20037;-67
2021/08/13 07:13:02;;;;;;;7.15;3.25;;;;;;;34.50;39.44;97294.63;5034903;28;20044;-69
2021/08/13 07:15:28;;;;;;;6.07;3.22;;;;;;;35.46;36.33;97295.41;5037748;28;20114;-67
2021/08/13 07:17:53;;;;;;;8.02;2.78;;;;;;;34.56;38.41;97292.56;5035433;28;20079;-67
2021/08/13 07:20:18;;;;;;;6.00;2.97;;;;;;;32.60;40.64;97299.50;5028783;28;20069;-68
2021/08/13 07:22:44;;;;;;;7.75;2.78;;;;;;;32.71;41.64;97308.88;5038176;28;20095;-68
2021/08/13 07:25:10;;;;;;;11.98;3.38;;;;;;;33.22;40.64;97308.53;5033277;28;20037;-67
2021/08/13 07:27:35;;;;;;;5.32;2.80;;;;;;;35.03;36.78;97304.25;5039146;28;20103;-65
2021/08/13 07:30:02;;;;;;;5.00;2.70;;;;;;;35.83;35.00;97302.03;5038166;28;20045;-66
2021/08/13 07:32:28;;;;;;;5.82;2.70;;;;;;;34.66;36.02;97305.25;5035689;28;20049;-67
2021/08/13 07:34:53;;;;;;;7.03;2.50;;;;;;;34.33;37.10;97303.91;5039415;28;20053;-66
2021/08/13 07:37:18;;;;;;;7.70;2.50;;;;;;;34.94;35.65;97313.06;5033219;28;20041;-67
2021/08/13 07:39:44;;;;;;;7.90;2.65;;;;;;;35.55;34.89;97309.34;5032334;28;20061;-66
2021/08/13 07:42:09;;;;;;;9.23;3.45;;;;;;;36.23;34.12;97316.91;5031102;28;20448;-67
2021/08/13 07:44:35;;;;;;;9.98;2.85;;;;;;;35.57;34.72;97312.44;5038958;28;20041;-67
2021/08/13 07:47:00;;;;;;;7.88;3.22;;;;;;;35.99;35.20;97313.34;5044180;28;20033;-67
2021/08/13 07:49:25;;;;;;;5.60;2.72;;;;;;;36.82;34.51;97315.50;5025956;28;20120;-67
2021/08/13 07:51:51;;;;;;;5.13;3.20;;;;;;;37.41;32.78;97309.53;5038127;28;20056;-66
2021/08/13 07:54:16;;;;;;;7.95;3.33;;;;;;;36.41;33.60;97313.44;5033166;28;20102;-66
2021/08/13 07:56:41;;;;;;;10.95;3.97;;;;;;;34.54;37.47;97309.34;5039093;28;20498;-67
2021/08/13 07:59:07;;;;;;;10.50;4.18;;;;;;;34.60;37.46;97315.84;5030976;28;20075;-67
2021/08/13 08:01:32;;;;;;;6.53;3.42;;;;;;;31.66;43.33;97319.28;5037188;28;20071;-67
2021/08/13 08:03:58;;;;;;;6.97;3.55;;;;;;;32.35;42.15;97313.16;5044261;28;20041;-67
2021/08/13 08:06:23;;;;;;;8.63;3.50;;;;;;;32.01;42.97;97315.56;5035681;28;20049;-67
2021/08/13 08:08:48;;;;;;;11.18;3.70;;;;;;;31.10;44.06;97299.41;5039202;28;20110;-67
2021/08/13 08:11:14;;;;;;;6.85;3.30;;;;;;;31.48;44.08;97294.03;5032747;28;20047;-67
2021/08/13 08:13:39;;;;;;;5.97;3.78;;;;;;;32.07;42.68;97298.66;5038355;28;20041;-67
2021/08/13 08:16:05;;;;;;;8.73;3.75;;;;;;;32.55;41.73;97298.13;5032645;28;20049;-68
2021/08/13 08:18:30;;;;;;;10.88;5.35;;;;;;;32.46;42.16;97310.41;5038603;28;20385;-67
2021/08/13 08:20:56;;;;;;;5.70;3.47;;;;;;;32.89;41.37;97313.41;5038694;28;20099;-65
2021/08/13 08:23:21;;;;;;;8.70;3.70;;;;;;;32.58;41.89;97323.47;5033050;28;20486;-66
2021/08/13 08:25:47;;;;;;;9.38;3.63;;;;;;;32.79;40.38;97316.94;5035025;28;20064;-66
2021/08/13 08:28:12;;;;;;;6.07;3.75;;;;;;;31.13;44.86;97308.97;5028347;28;20061;-66
2021/08/13 08:30:37;;;;;;;10.50;3.83;;;;;;;32.16;41.29;97301.34;5029445;28;20095;-66
2021/08/13 08:33:03;;;;;;;7.55;3.42;;;;;;;32.27;41.35;97304.31;5035975;28;20504;-66
2021/08/13 08:35:29;;;;;;;10.43;3.22;;;;;;;32.58;40.17;97309.28;5035452;28;20056;-65
2021/08/13 08:37:57;;;;;;;7.88;2.97;;;;;;;32.13;40.04;97316.53;5039127;28;20045;-67
2021/08/13 08:40:27;;;;;;;10.60;2.78;;;;;;;32.74;39.79;97319.22;5032525;28;20079;-66
2021/08/13 08:42:58;;;;;;;7.28;2.55;;;;;;;33.12;39.22;97324.94;5037665;28;20405;-66
2021/08/13 08:45:31;;;;;;;6.68;2.50;;;;;;;33.14;37.08;97328.09;5028299;28;20233;-66
2021/08/13 08:47:59;;;;;;;9.50;2.38;;;;;;;32.88;37.11;97320.38;5037740;28;20099;-66
2021/08/13 08:50:26;;;;;;;3.88;1.80;;;;;;;33.28;35.69;97317.88;5031068;28;20045;-65
2021/08/13 08:52:52;;;;;;;6.90;2.33;;;;;;;33.23;35.59;97325.03;5037745;28;20040;-65
2021/08/13 08:55:18;;;;;;;8.32;2.55;;;;;;;33.95;36.16;97322.38;5020517;28;20179;-66
2021/08/13 08:57:47;;;;;;;10.85;3.90;;;;;;;34.17;37.58;97330.19;5036654;28;20045;-65
2021/08/13 09:00:15;;;;;;;7.00;3.45;;;;;;;34.73;36.08;97318.97;5032113;28;20052;-66
2021/08/13 09:02:45;;;;;;;9.70;3.20;;;;;;;34.89;36.02;97325.97;5037081;28;20048;-66
2021/08/13 09:05:11;;;;;;;8.35;3.10;;;;;;;34.46;35.79;97324.09;5029231;28;20128;-66
2021/08/13 09:07:37;;;;;;;11.80;2.65;;;;;;;34.61;36.27;97321.03;5035945;28;20373;-66
2021/08/13 09:10:04;;;;;;;9.63;3.13;;;;;;;33.96;36.61;97326.75;5033841;28;20041;-67
2021/08/13 09:12:33;;;;;;;9.27;3.42;;;;;;;34.91;34.44;97323.38;5040407;28;20036;-66
2021/08/13 09:14:58;;;;;;;9.27;2.53;;;;;;;33.98;36.91;97324.16;5040593;28;20078;-66
2021/08/13 09:17:31;;;;;;;9.48;3.25;;;;;;;34.84;35.88;97332.44;5034813;28;20048;-66
2021/08/13 09:19:57;;;;;;;8.75;3.08;;;;;;;34.51;35.33;97336.00;5040527;28;20040;-66
2021/08/13 09:22:24;;;;;;;7.25;3.00;;;;;;;33.90;37.82;97350.22;5027778;28;20508;-66
2021/08/13 09:24:53;;;;;;;8.50;2.50;;;;;;;33.14;36.47;97356.47;5027256;28;20190;-66
2021/08/13 09:27:22;;;;;;;8.48;2.30;;;;;;;32.86;36.49;97350.50;5036923;28;20045;-66
2021/08/13 09:30:07;;;;;;;8.52;2.63;;;;;;;33.29;35.29;97342.13;5041492;28;20119;-66
2021/08/13 09:32:33;;;;;;;10.75;2.00;;;;;;;33.06;35.60;97353.28;5039358;28;20044;-66
2021/08/13 09:35:04;;;;;;;7.75;2.15;;;;;;;33.09;35.83;97351.47;5039575;28;20052;-66
2021/08/13 09:37:29;;;;;;;6.80;2.25;;;;;;;32.39;37.23;97347.72;5022630;28;20040;-66
2021/08/13 09:39:57;;;;;;;6.97;2.38;;;;;;;33.52;35.07;97345.88;5032951;28;20124;-66
2021/08/13 09:42:36;;;;;;;6.63;1.70;;;;;;;33.04;35.02;97344.47;5033432;28;20891;-66
2021/08/13 09:45:06;;;;;;;;;;;;;;;32.04;36.60;97340.13;5028233;28;20398;-65
2021/08/13 09:47:41;;;;;;;6.60;2.03;;;;;;;32.34;36.13;97339.91;5041653;28;20516;-65
2021/08/13 09:50:08;;;;;;;6.15;2.35;;;;;;;32.46;35.86;97344.44;5035752;28;20095;-67
2021/08/13 09:52:34;;;;;;;9.40;2.13;;;;;;;33.04;35.63;97344.47;5040319;28;20053;-67
2021/08/13 09:55:13;;;;;;;12.35;2.75;;;;;;;33.01;36.06;97341.88;5036040;28;20048;-67
2021/08/13 09:57:41;;;;;;;10.38;2.50;;;;;;;33.63;34.99;97334.56;5033692;28;20043;-67
2021/08/13 10:00:07;;;;;;;6.55;2.33;;;;;;;32.72;36.25;97344.47;5033310;28;20045;-67
2021/08/13 10:02:40;;;;;;;4.82;2.05;;;;;;;33.55;35.09;97333.50;5040571;28;20111;-67
2021/08/13 10:05:16;;;;;;;6.45;2.03;;;;;;;33.77;35.25;97332.09;5035615;28;20052;-67
2021/08/13 10:07:52;;;;;;;10.68;2.33;;;;;;;33.75;35.32;97329.78;5040586;28;20104;-67
2021/08/13 10:10:29;;;;;;;8.80;2.35;;;;;;;34.36;34.22;97327.69;5030330;28;20045;-69
2021/08/13 10:12:56;;;;;;;6.53;2.22;;;;;;;33.60;34.80;97329.94;5032560;28;20044;-67
2021/08/13 10:15:39;;;;;;;4.28;1.70;;;;;;;34.22;33.97;97332.31;5032177;28;21825;-67
2021/08/13 10:18:10;;;;;;;13.05;2.50;;;;;;;33.95;35.43;97342.25;5028053;28;20083;-68
2021/08/13 10:20:45;;;;;;;6.32;2.35;;;;;;;33.42;35.62;97319.75;5040777;28;20111;-66
2021/08/13 10:23:12;;;;;;;10.93;2.83;;;;;;;33.90;33.90;97321.06;5032778;28;20583;-66
2021/08/13 10:25:38;;;;;;;6.05;2.17;;;;;;;33.60;35.09;97326.28;5038952;28;20045;-66
2021/08/13 10:28:05;;;;;;;9.35;1.98;;;;;;;33.56;35.64;97325.75;5033761;28;20045;-68
2021/08/13 10:30:30;;;;;;;7.57;2.05;;;;;;;33.21;35.93;97315.50;5040811;28;20049;-66
2021/08/13 10:32:58;;;;;;;8.95;2.25;;;;;;;32.79;36.87;97320.56;5040627;28;20390;-66
2021/08/13 10:35:39;;;;;;;7.72;2.17;;;;;;;32.44;37.37;97317.88;5033860;28;20507;-66
2021/08/13 10:38:08;;;;;;;7.55;2.00;;;;;;;33.38;36.49;97313.53;5035873;28;20056;-68
2021/08/13 10:40:34;;;;;;;7.00;2.13;;;;;;;33.94;34.36;97327.25;5039101;28;20141;-66
2021/08/13 10:43:01;;;;;;;5.50;1.90;;;;;;;33.58;35.22;97318.28;5020632;28;20494;-67
2021/08/13 10:45:32;;;;;;;10.45;2.50;;;;;;;33.28;36.97;97317.88;5037158;28;20041;-67
2021/08/13 10:48:06;;;;;;;10.10;2.40;;;;;;;33.72;35.16;97310.91;5039840;28;20047;-66
2021/08/13 10:50:32;;;;;;;6.50;2.10;;;;;;;34.14;34.87;97309.28;5036378;28;20045;-66
2021/08/13 10:52:57;;;;;;;6.35;2.35;;;;;;;34.67;33.79;97306.81;5040210;28;20243;-67
2021/08/13 10:55:42;;;;;;;9.23;2.58;;;;;;;33.69;35.90;97309.88;5031373;28;20537;-67
2021/08/13 10:58:08;;;;;;;5.93;2.10;;;;;;;34.00;34.26;97308.19;5033531;28;20044;-66
2021/08/13 11:01:13;;;;;;;8.25;2.38;;;;;;;33.12;36.33;97313.59;5038803;28;20139;-67
2021/08/13 11:03:52;;;;;;;8.75;2.30;;;;;;;33.29;36.75;97311.66;5037857;28;20040;-67
2021/08/13 11:06:38;;;;;;;8.32;2.28;;;;;;;33.02;36.87;97307.31;5032249;28;20154;-67
2021/08/13 11:09:31;;;;;;;8.63;2.35;;;;;;;33.34;36.40;97310.16;5030812;28;20269;-69
2021/08/13 11:12:05;;;;;;;6.03;2.30;;;;;;;33.54;36.12;97312.06;5036500;28;20032;-67
2021/08/13 11:14:52;;;;;;;14.93;2.30;;;;;;;33.55;35.66;97310.00;5031086;28;20033;-66
2021/08/13 11:17:31;;;;;;;9.48;2.50;;;;;;;33.37;35.64;97302.66;5031122;28;20049;-67
2021/08/13 11:19:58;;;;;;;8.07;1.73;;;;;;;33.03;37.01;97311.72;5037426;28;20493;-67
2021/08/13 11:22:34;;;;;;;13.40;4.95;;;;;;;33.02;38.40;97309.38;5029935;28;20243;-67
2021/08/13 11:25:00;;;;;;;6.07;2.38;;;;;;;32.55;38.40;97300.97;5035583;28;20053;-66
2021/08/13 11:27:25;;;;;;;9.60;2.47;;;;;;;32.36;38.51;97297.72;5032430;28;20049;-66
2021/08/13 11:29:51;;;;;;;8.65;2.80;;;;;;;32.44;38.82;97290.31;5022325;28;20037;-67